createdAt,value
2018-10-12T00:00:15.748Z,69.10
2018-10-12T00:02:44.111Z,68.80
2018-10-12T00:05:12.844Z,68.40
2018-10-12T00:07:41.892Z,67.80
2018-10-12T00:10:10.564Z,67.80
2018-10-12T00:12:39.058Z,68.00
2018-10-12T00:15:07.211Z,67.60
2018-10-12T00:17:35.384Z,67.10
2018-10-12T00:20:03.547Z,66.90
2018-10-12T00:22:31.806Z,67.00
2018-10-12T00:25:00.015Z,67.20
2018-10-12T00:27:28.131Z,67.00
2018-10-12T00:29:56.276Z,66.60
2018-10-12T00:32:24.428Z,66.40
2018-10-12T00:34:52.577Z,67.40
2018-10-12T00:37:20.956Z,67.40
2018-10-12T00:39:49.727Z,67.90
2018-10-12T00:42:17.991Z,67.40
2018-10-12T00:44:46.127Z,67.20
2018-10-12T00:47:14.275Z,68.10
2018-10-12T00:49:42.436Z,68.10
2018-10-12T00:52:10.559Z,68.50
2018-10-12T00:54:38.752Z,68.70
2018-10-12T00:57:07.305Z,69.10
2018-10-12T00:59:35.745Z,69.60
2018-10-12T01:02:03.972Z,69.90
2018-10-12T01:04:32.135Z,70.50
2018-10-12T01:07:00.701Z,70.00
2018-10-12T01:09:28.825Z,70.50
2018-10-12T01:12:08.541Z,70.80
2018-10-12T01:14:36.690Z,70.30
2018-10-12T01:17:04.863Z,70.30
2018-10-12T01:19:32.993Z,70.30
2018-10-12T01:22:01.124Z,70.20
2018-10-12T01:24:29.277Z,70.80
2018-10-12T01:26:58.176Z,71.10
2018-10-12T01:29:26.317Z,70.90
2018-10-12T01:31:54.479Z,70.90
2018-10-12T01:34:22.590Z,71.00
2018-10-12T01:36:50.711Z,71.30
2018-10-12T01:39:18.978Z,71.10
2018-10-12T01:41:47.100Z,71.70
2018-10-12T01:44:15.264Z,72.30
2018-10-12T01:46:43.396Z,73.50
2018-10-12T01:49:11.576Z,74.10
2018-10-12T01:51:39.969Z,74.80
2018-10-12T01:54:08.223Z,74.90
2018-10-12T01:56:36.428Z,75.30
2018-10-12T01:59:04.556Z,75.80
2018-10-12T02:01:32.683Z,75.40
2018-10-12T02:04:00.845Z,75.80
2018-10-12T02:06:29.361Z,75.80
2018-10-12T02:08:57.868Z,75.60
2018-10-12T02:11:25.998Z,75.50
2018-10-12T02:13:54.121Z,74.70
2018-10-12T02:16:22.276Z,75.20
2018-10-12T02:18:50.408Z,75.50
2018-10-12T02:21:18.662Z,75.80
2018-10-12T02:23:46.855Z,75.90
2018-10-12T02:26:15.002Z,75.70
2018-10-12T02:28:43.171Z,76.60
2018-10-12T02:31:11.311Z,77.80
2018-10-12T02:33:39.548Z,78.70
2018-10-12T02:36:07.685Z,78.00
2018-10-12T02:38:35.823Z,78.00
2018-10-12T02:41:03.991Z,77.60
2018-10-12T02:43:32.100Z,78.00
2018-10-12T02:46:00.416Z,78.80
2018-10-12T02:48:28.562Z,78.70
2018-10-12T02:58:20.840Z,76.70
2018-10-12T03:00:49.320Z,77.30
2018-10-12T03:03:17.465Z,77.70
2018-10-12T03:05:46.068Z,77.40
2018-10-12T03:08:14.212Z,78.10
2018-10-12T03:10:42.350Z,77.50
2018-10-12T03:13:10.788Z,77.90
2018-10-12T03:20:34.814Z,77.90
2018-10-12T03:23:02.947Z,78.10
2018-10-12T03:25:31.375Z,78.90
2018-10-12T03:28:11.920Z,78.70
2018-10-12T03:30:40.392Z,78.20
2018-10-12T03:33:08.920Z,79.10
2018-10-12T03:35:37.072Z,79.50
2018-10-12T03:38:05.204Z,79.10
2018-10-12T03:40:33.349Z,77.40
2018-10-12T03:43:01.503Z,78.20
2018-10-12T03:45:29.634Z,78.50
2018-10-12T03:47:57.768Z,78.90
2018-10-12T03:50:25.900Z,79.30
2018-10-12T03:52:54.035Z,79.60
2018-10-12T03:55:22.210Z,79.70
2018-10-12T03:57:50.704Z,80.50
2018-10-12T04:00:19.039Z,80.60
2018-10-12T04:02:47.497Z,81.00
2018-10-12T04:05:15.607Z,81.30
2018-10-12T04:07:43.768Z,81.90
2018-10-12T04:10:11.959Z,81.50
2018-10-12T04:12:40.574Z,82.00
2018-10-12T04:15:08.900Z,82.20
2018-10-12T04:17:37.023Z,82.40
2018-10-12T04:20:05.282Z,83.10
2018-10-12T04:22:33.400Z,82.80
2018-10-12T04:25:01.576Z,82.90
2018-10-12T04:27:29.701Z,82.70
2018-10-12T04:29:58.141Z,82.20
2018-10-12T04:32:26.369Z,81.60
2018-10-12T04:37:22.570Z,81.20
2018-10-12T04:40:31.113Z,82.60
2018-10-12T04:42:59.416Z,82.70
2018-10-12T04:45:27.648Z,83.50
2018-10-12T04:47:55.768Z,83.20
2018-10-12T04:50:23.904Z,83.30
2018-10-12T04:55:20.018Z,82.70
2018-10-12T04:57:48.158Z,83.30
2018-10-12T05:00:16.280Z,83.40
2018-10-12T05:02:44.399Z,83.50
2018-10-12T05:07:40.559Z,84.50
2018-10-12T05:10:08.636Z,85.00
2018-10-12T05:12:37.116Z,85.00
2018-10-12T05:15:05.395Z,85.00
2018-10-12T05:17:33.529Z,85.70
2018-10-12T05:20:01.756Z,86.40
2018-10-12T05:22:29.892Z,86.60
2018-10-12T05:24:58.019Z,87.30
2018-10-12T05:27:26.463Z,86.80
2018-10-12T05:29:54.604Z,86.70
2018-10-12T05:32:22.774Z,85.90
2018-10-12T05:34:50.886Z,86.20
2018-10-12T05:37:19.030Z,86.30
2018-10-12T05:39:47.216Z,85.40
2018-10-12T05:42:15.441Z,85.30
2018-10-12T05:44:43.556Z,85.00
2018-10-12T05:47:11.682Z,85.40
2018-10-12T05:50:04.017Z,85.70
2018-10-12T05:52:32.967Z,86.30
2018-10-12T05:55:01.726Z,86.60
2018-10-12T05:57:31.480Z,87.00
2018-10-12T06:00:00.761Z,87.80
2018-10-12T06:02:28.903Z,87.90
2018-10-12T06:04:57.008Z,88.00
2018-10-12T06:07:25.187Z,87.50
2018-10-12T06:09:53.416Z,87.50
2018-10-12T06:12:21.491Z,88.50
2018-10-12T06:14:49.638Z,86.50
2018-10-12T06:17:17.764Z,86.20
2018-10-12T06:19:46.127Z,87.00
2018-10-12T06:22:14.238Z,86.70
2018-10-12T06:24:42.545Z,86.30
2018-10-12T06:27:10.738Z,86.60
2018-10-12T06:29:38.883Z,87.20
2018-10-12T06:34:34.960Z,88.80
2018-10-12T06:37:03.104Z,88.10
2018-10-12T06:41:59.220Z,88.70
2018-10-12T06:44:27.345Z,88.90
2018-10-12T06:46:55.488Z,88.50
2018-10-12T06:49:23.659Z,88.10
2018-10-12T06:51:51.804Z,87.80
2018-10-12T06:54:19.911Z,87.60
2018-10-12T06:56:48.268Z,87.60
2018-10-12T06:59:16.684Z,86.30
2018-10-12T07:01:44.872Z,87.30
2018-10-12T07:04:13.001Z,88.10
2018-10-12T07:09:10.477Z,87.80
2018-10-12T07:11:38.924Z,89.30
2018-10-12T07:14:07.411Z,89.10
2018-10-12T07:16:35.184Z,88.10
2018-10-12T07:19:03.322Z,87.70
2018-10-12T07:21:31.457Z,87.20
2018-10-12T07:23:59.591Z,86.50
2018-10-12T07:26:27.826Z,86.00
2018-10-12T07:28:55.956Z,86.00
2018-10-12T07:31:24.309Z,86.40
2018-10-12T07:33:52.409Z,85.60
2018-10-12T07:36:20.547Z,85.60
2018-10-12T07:38:48.674Z,84.50
2018-10-12T07:41:17.112Z,83.80
2018-10-12T07:43:46.128Z,84.60
2018-10-12T07:46:14.277Z,85.40
2018-10-12T07:48:42.382Z,84.80
2018-10-12T07:51:10.493Z,84.70
2018-10-12T07:53:38.612Z,83.70
2018-10-12T07:56:07.537Z,81.50
2018-10-12T07:58:35.657Z,81.70
2018-10-12T08:01:03.806Z,81.60
2018-10-12T08:03:31.912Z,82.30
2018-10-12T08:06:00.919Z,81.50
2018-10-12T08:10:57.232Z,79.70
2018-10-12T08:13:25.679Z,78.30
2018-10-12T08:18:23.212Z,78.50
2018-10-12T08:20:51.374Z,78.00
2018-10-12T08:25:47.728Z,78.10
2018-10-12T08:28:15.900Z,78.20
2018-10-12T08:30:44.032Z,78.70
2018-10-12T08:33:12.169Z,77.30
2018-10-12T08:35:40.383Z,76.90
2018-10-12T08:38:08.840Z,76.20
2018-10-12T08:40:37.165Z,74.10
2018-10-12T08:43:05.471Z,73.00
2018-10-12T08:45:33.584Z,70.40
2018-10-12T08:48:01.711Z,64.40
2018-10-12T08:50:29.840Z,59.10
2018-10-12T08:52:58.075Z,56.90
2018-10-12T08:55:26.286Z,52.70
2018-10-12T08:57:54.341Z,52.00
2018-10-12T09:00:22.572Z,50.20
2018-10-12T09:02:50.837Z,47.20
2018-10-12T09:05:19.129Z,47.10
2018-10-12T09:07:47.634Z,46.00
2018-10-12T09:10:15.760Z,46.40
2018-10-12T09:12:43.895Z,44.60
2018-10-12T09:15:12.004Z,44.40
2018-10-12T09:17:40.144Z,43.50
2018-10-12T09:20:08.618Z,45.00
2018-10-12T09:22:37.107Z,44.40
2018-10-12T09:25:05.476Z,43.90
2018-10-12T09:27:33.621Z,42.20
2018-10-12T09:30:01.754Z,41.90
2018-10-12T09:32:29.867Z,42.10
2018-10-12T09:42:22.755Z,43.20
2018-10-12T09:44:51.536Z,43.10
2018-10-12T09:47:19.692Z,41.00
2018-10-12T09:49:47.827Z,40.60
2018-10-12T09:52:15.947Z,41.30
2018-10-12T09:54:44.083Z,40.10
2018-10-12T09:57:17.632Z,40.60
2018-10-12T09:59:45.787Z,41.20
2018-10-12T10:02:19.408Z,40.70
2018-10-12T10:04:47.480Z,41.30
2018-10-12T10:07:15.627Z,41.90
2018-10-12T10:09:43.736Z,42.70
2018-10-12T10:12:11.871Z,43.80
2018-10-12T10:14:40.107Z,44.70
2018-10-12T10:17:08.272Z,44.50
2018-10-12T10:19:36.404Z,45.20
2018-10-12T10:22:04.532Z,46.30
2018-10-12T10:24:32.679Z,47.80
2018-10-12T10:27:01.148Z,47.20
2018-10-12T10:29:29.296Z,46.60
2018-10-12T10:31:58.400Z,47.00
2018-10-12T10:34:26.568Z,47.30
2018-10-12T10:36:54.716Z,47.00
2018-10-12T10:39:22.848Z,44.40
2018-10-12T10:41:50.964Z,43.90
2018-10-12T10:46:47.007Z,43.70
2018-10-12T10:49:15.147Z,44.00
2018-10-12T10:51:43.480Z,47.00
2018-10-12T10:54:11.709Z,47.70
2018-10-12T10:56:40.104Z,45.40
2018-10-12T10:59:08.436Z,43.50
2018-10-12T11:01:36.558Z,43.20
2018-10-12T11:04:04.728Z,43.30
2018-10-12T11:06:32.870Z,43.30
2018-10-12T11:09:01.192Z,42.90
2018-10-12T11:13:57.236Z,40.10
2018-10-12T11:16:25.407Z,39.00
2018-10-12T11:18:53.740Z,38.20
2018-10-12T11:21:21.860Z,39.10
2018-10-12T11:26:17.963Z,36.70
2018-10-12T11:33:41.953Z,35.00
2018-10-12T11:36:10.138Z,35.00
2018-10-12T11:38:38.268Z,33.90
2018-10-12T11:41:06.953Z,34.60
2018-10-12T11:48:33.316Z,35.10
2018-10-12T11:53:29.701Z,34.90
2018-10-12T12:00:54.434Z,31.70
2018-10-12T12:03:22.670Z,31.90
2018-10-12T12:05:50.819Z,32.70
2018-10-12T12:08:19.059Z,34.40
2018-10-12T12:10:47.942Z,34.70
2018-10-12T12:13:16.052Z,34.50
2018-10-12T12:15:44.158Z,33.90
2018-10-12T12:18:12.297Z,33.00
2018-10-12T12:20:40.446Z,33.10
2018-10-12T12:23:08.572Z,33.50
2018-10-12T12:25:36.712Z,32.30
2018-10-12T12:28:04.864Z,33.30
2018-10-12T12:30:33.004Z,34.50
2018-10-12T12:33:01.392Z,33.40
2018-10-12T12:35:30.121Z,33.60
2018-10-12T12:37:57.859Z,33.70
2018-10-12T12:40:26.002Z,33.80
2018-10-12T12:42:54.231Z,35.90
2018-10-12T12:45:22.487Z,36.10
2018-10-12T12:47:50.659Z,36.10
2018-10-12T12:50:18.915Z,36.40
2018-10-12T12:52:47.495Z,36.30
2018-10-12T12:55:15.672Z,35.80
2018-10-12T12:57:43.785Z,35.80
2018-10-12T13:00:11.948Z,35.00
2018-10-12T13:02:40.125Z,34.90
2018-10-12T13:05:08.264Z,35.00
2018-10-12T13:07:36.481Z,35.50
2018-10-12T13:10:04.724Z,35.00
2018-10-12T13:12:32.892Z,35.00
2018-10-12T13:15:01.713Z,34.40
2018-10-12T13:17:30.168Z,33.90
2018-10-12T13:19:58.302Z,33.70
2018-10-12T13:22:26.436Z,34.90
2018-10-12T13:24:54.637Z,34.40
2018-10-12T13:27:23.127Z,34.60
2018-10-12T13:29:51.361Z,35.00
2018-10-12T13:32:19.669Z,35.70
2018-10-12T13:34:47.804Z,35.20
2018-10-12T13:37:15.951Z,36.00
2018-10-12T13:39:44.141Z,36.00
2018-10-12T13:42:12.231Z,35.60
2018-10-12T13:44:40.512Z,35.70
2018-10-12T13:47:08.648Z,35.00
2018-10-12T13:49:36.800Z,36.80
2018-10-12T13:52:05.240Z,38.00
2018-10-12T13:57:02.219Z,36.60
2018-10-12T14:11:53.380Z,37.30
2018-10-12T14:14:21.558Z,38.00
2018-10-12T14:16:49.696Z,38.40
2018-10-12T14:19:17.999Z,39.10
2018-10-12T14:21:45.956Z,39.70
2018-10-12T14:24:14.201Z,39.00
2018-10-12T14:26:42.345Z,39.50
2018-10-12T14:29:10.452Z,40.90
2018-10-12T14:31:38.953Z,41.60
2018-10-12T14:34:07.117Z,42.20
2018-10-12T14:36:35.246Z,41.90
2018-10-12T14:39:04.107Z,42.70
2018-10-12T14:41:32.596Z,41.50
2018-10-12T14:44:01.922Z,41.90
2018-10-12T14:46:29.958Z,42.70
2018-10-12T14:48:58.112Z,42.30
2018-10-12T14:51:26.238Z,42.40
2018-10-12T14:53:54.353Z,42.20
2018-10-12T14:56:22.545Z,43.10
2018-10-12T14:58:50.705Z,42.70
2018-10-12T15:01:18.800Z,43.00
2018-10-12T15:03:46.955Z,43.40
2018-10-12T15:06:15.517Z,43.50
2018-10-12T15:08:43.686Z,44.00
2018-10-12T15:11:11.875Z,44.10
2018-10-12T15:13:40.009Z,44.00
2018-10-12T15:16:08.144Z,44.30
2018-10-12T15:18:36.260Z,44.60
2018-10-12T15:21:04.441Z,44.20
2018-10-12T15:23:32.526Z,44.10
2018-10-12T15:26:02.411Z,44.10
2018-10-12T15:28:30.516Z,43.80
2018-10-12T15:30:58.659Z,43.70
2018-10-12T15:33:26.812Z,43.60
2018-10-12T15:35:55.017Z,43.30
2018-10-12T15:38:23.175Z,44.40
2018-10-12T15:40:51.335Z,45.40
2018-10-12T15:43:19.828Z,45.60
2018-10-12T15:45:48.064Z,46.10
2018-10-12T15:48:16.186Z,46.20
2018-10-12T15:50:44.299Z,47.00
2018-10-12T15:53:13.255Z,46.20
2018-10-12T15:55:41.910Z,46.30
2018-10-12T15:58:10.044Z,46.40
2018-10-12T16:00:38.263Z,46.00
2018-10-12T16:03:06.379Z,45.90
2018-10-12T16:05:34.493Z,46.10
2018-10-12T16:08:02.694Z,46.20
2018-10-12T16:10:31.442Z,46.00
2018-10-12T16:12:59.583Z,46.00
2018-10-12T16:15:27.717Z,46.40
2018-10-12T16:17:55.851Z,45.60
2018-10-12T16:20:24.156Z,45.30
2018-10-12T16:22:52.320Z,45.70
2018-10-12T16:26:01.552Z,45.90
2018-10-12T16:28:29.722Z,46.80
2018-10-12T16:33:26.076Z,47.10
2018-10-12T16:38:23.446Z,47.30
2018-10-12T16:40:51.628Z,47.20
2018-10-12T16:43:19.806Z,47.00
2018-10-12T16:48:17.143Z,47.00
2018-10-12T16:50:45.276Z,47.40
2018-10-12T16:53:13.943Z,47.30
2018-10-12T16:55:42.112Z,47.60
2018-10-12T16:58:11.553Z,47.20
2018-10-12T17:00:39.653Z,47.30
2018-10-12T17:03:08.117Z,47.40
2018-10-12T17:05:36.240Z,47.30
2018-10-12T17:08:04.565Z,47.30
2018-10-12T17:13:02.204Z,47.30
2018-10-12T17:15:30.449Z,48.00
2018-10-12T17:22:55.419Z,48.10
2018-10-12T17:25:23.699Z,48.50
2018-10-12T17:27:51.889Z,48.70
2018-10-12T17:30:20.146Z,48.90
2018-10-12T17:32:48.302Z,49.40
2018-10-12T17:35:16.745Z,49.40
2018-10-12T17:37:44.864Z,49.90
2018-10-12T17:40:13.261Z,50.20
2018-10-12T17:42:41.381Z,50.60
2018-10-12T17:45:10.239Z,50.60
2018-10-12T17:47:38.597Z,50.80
2018-10-12T17:50:07.033Z,50.70
2018-10-12T17:52:35.153Z,51.10
2018-10-12T17:55:03.550Z,51.70
2018-10-12T17:57:31.719Z,52.10
2018-10-12T17:59:59.875Z,53.00
2018-10-12T18:02:28.054Z,53.20
2018-10-12T18:04:56.351Z,52.70
2018-10-12T18:07:25.353Z,53.00
2018-10-12T18:09:53.589Z,53.30
2018-10-12T18:12:21.873Z,53.80
2018-10-12T18:14:49.986Z,54.30
2018-10-12T18:27:09.948Z,56.30
2018-10-12T18:29:38.188Z,58.10
2018-10-12T18:32:06.501Z,58.70
2018-10-12T18:34:34.919Z,58.50
2018-10-12T18:37:03.061Z,59.00
2018-10-12T18:49:23.068Z,59.80
2018-10-12T18:51:51.193Z,59.60
2018-10-12T18:54:19.320Z,60.30
2018-10-12T18:56:47.469Z,60.60
2018-10-12T18:59:15.964Z,61.20
2018-10-12T19:01:44.083Z,61.90
2018-10-12T19:04:12.307Z,61.40
2018-10-12T19:06:40.839Z,61.80
2018-10-12T19:09:09.983Z,62.30
2018-10-12T19:11:39.109Z,63.10
2018-10-12T19:14:07.266Z,63.70
2018-10-12T19:16:35.456Z,63.30
2018-10-12T19:19:03.788Z,62.30
2018-10-12T19:21:31.972Z,63.10
2018-10-12T19:24:00.109Z,63.90
2018-10-12T19:26:28.218Z,64.80
2018-10-12T19:28:56.349Z,63.60
2018-10-12T19:31:24.623Z,64.40
2018-10-12T19:33:52.768Z,65.20
2018-10-12T19:36:20.892Z,65.10
2018-10-12T19:38:49.018Z,64.90
2018-10-12T19:41:17.244Z,64.90
2018-10-12T19:43:45.453Z,65.90
2018-10-12T19:46:13.802Z,66.50
2018-10-12T19:51:09.844Z,65.80
2018-10-12T19:53:38.017Z,66.20
2018-10-12T19:58:34.559Z,68.00
2018-10-12T20:05:58.760Z,68.40
2018-10-12T20:20:46.541Z,72.00
2018-10-12T20:23:14.884Z,72.50
2018-10-12T20:25:43.356Z,73.30
2018-10-12T20:30:39.443Z,71.10
2018-10-12T20:33:07.716Z,70.40
2018-10-12T20:35:35.847Z,70.10
2018-10-12T20:45:27.726Z,71.20
2018-10-12T20:47:55.877Z,72.00
2018-10-12T20:55:19.957Z,73.00
2018-10-12T20:57:49.432Z,73.60
2018-10-12T21:00:18.766Z,73.00
2018-10-12T21:05:15.121Z,73.00
2018-10-12T21:07:44.007Z,73.00
2018-10-12T21:10:12.170Z,74.00
2018-10-12T21:12:40.291Z,74.90
2018-10-12T21:15:08.456Z,74.60
2018-10-12T21:17:36.725Z,73.30
2018-10-12T21:20:05.113Z,73.40
2018-10-12T21:22:33.568Z,74.80
2018-10-12T21:25:02.474Z,74.20
2018-10-12T21:27:30.945Z,75.10
2018-10-12T21:29:59.209Z,75.00
2018-10-12T21:32:27.339Z,75.20
2018-10-12T21:34:55.471Z,75.70
2018-10-12T21:37:23.574Z,74.70
2018-10-12T21:39:51.704Z,75.50
2018-10-12T21:42:20.232Z,76.00
2018-10-12T21:44:48.383Z,75.60
2018-10-12T21:47:16.526Z,75.00
2018-10-12T21:49:44.715Z,75.10
2018-10-12T21:52:12.847Z,74.60
2018-10-12T21:54:41.042Z,75.20
2018-10-12T21:57:09.198Z,74.60
2018-10-12T21:59:37.358Z,74.80
2018-10-12T22:02:05.489Z,75.40
2018-10-12T22:04:33.617Z,73.90
2018-10-12T22:07:02.575Z,74.50
2018-10-12T22:09:30.752Z,75.00
2018-10-12T22:11:58.955Z,75.40
2018-10-12T22:14:27.069Z,75.00
2018-10-12T22:16:55.183Z,75.20
2018-10-12T22:19:23.361Z,75.20
2018-10-12T22:21:51.501Z,75.60
2018-10-12T22:24:19.639Z,75.20
2018-10-12T22:26:47.771Z,76.00
2018-10-12T22:29:16.191Z,75.70
2018-10-12T22:31:44.326Z,75.20
2018-10-12T22:34:12.460Z,74.00
2018-10-12T22:36:40.755Z,73.90
2018-10-12T22:39:09.836Z,73.40
2018-10-12T22:41:38.064Z,74.70
2018-10-12T22:44:06.730Z,75.10
2018-10-12T22:46:34.887Z,74.30
2018-10-12T22:49:03.392Z,75.10
2018-10-12T22:51:31.520Z,74.70
2018-10-12T22:53:59.999Z,75.30
2018-10-12T22:56:28.196Z,75.10
2018-10-12T22:58:56.336Z,75.90
2018-10-12T23:01:24.468Z,75.40
2018-10-12T23:03:52.980Z,76.80
2018-10-12T23:06:21.116Z,76.10
2018-10-12T23:08:49.253Z,76.80
2018-10-12T23:11:17.402Z,76.60
2018-10-12T23:13:45.558Z,76.70
2018-10-12T23:16:13.670Z,75.70
2018-10-12T23:18:41.820Z,75.00
2018-10-12T23:21:09.962Z,75.50
2018-10-12T23:23:38.116Z,75.50
2018-10-12T23:26:07.522Z,75.80
2018-10-12T23:28:35.698Z,75.70
2018-10-12T23:31:03.836Z,76.60
2018-10-12T23:33:43.308Z,76.30
2018-10-12T23:36:11.468Z,75.90
2018-10-12T23:38:39.940Z,75.50
2018-10-12T23:41:08.156Z,75.80
2018-10-12T23:43:36.363Z,76.10
2018-10-12T23:46:04.511Z,75.10
2018-10-12T23:48:32.740Z,75.60
2018-10-12T23:51:00.896Z,75.00
2018-10-12T23:53:29.016Z,75.00
2018-10-12T23:55:57.155Z,74.20
2018-10-12T23:58:25.268Z,75.30
